createdAt,value
2023-05-01T00:02:24.041Z,96984.44
2023-05-01T00:04:50.700Z,96984.44
2023-05-01T00:07:17.498Z,96986.41
2023-05-01T00:09:44.018Z,96970.31
2023-05-01T00:12:11.573Z,96981.63
2023-05-01T00:14:38.054Z,96984.25
2023-05-01T00:17:04.587Z,96972.94
2023-05-01T00:19:31.094Z,96968.53
2023-05-01T00:21:57.547Z,96964.72
2023-05-01T00:24:24.229Z,96965.88
2023-05-01T00:26:50.696Z,96965.22
2023-05-01T00:29:17.282Z,96967.03
2023-05-01T00:31:44.061Z,96952.44
2023-05-01T00:34:11.589Z,96964.25
2023-05-01T00:36:39.443Z,96958.66
2023-05-01T00:39:07.910Z,96963.25
2023-05-01T00:41:35.091Z,96957.94
2023-05-01T00:44:01.806Z,96950.31
2023-05-01T00:46:30.521Z,96944.56
2023-05-01T00:48:58.972Z,96943.72
2023-05-01T00:51:29.114Z,96941.78
2023-05-01T00:53:56.456Z,96943.66
2023-05-01T00:56:23.031Z,96933.69
2023-05-01T00:58:54.242Z,96936.13
2023-05-01T01:01:21.780Z,96926.63
2023-05-01T01:03:48.810Z,96936.16
2023-05-01T01:06:21.387Z,96938.41
2023-05-01T01:09:09.150Z,96922.56
2023-05-01T01:11:48.714Z,96911.56
2023-05-01T01:14:25.681Z,96897.75
2023-05-01T01:16:59.463Z,96898.47
2023-05-01T01:20:04.027Z,96918.28
2023-05-01T01:22:32.289Z,96903.06
2023-05-01T01:24:59.277Z,96919.44
2023-05-01T01:28:03.999Z,96910.91
2023-05-01T01:30:56.777Z,96905.69
2023-05-01T01:33:58.087Z,96911.53
2023-05-01T01:36:46.761Z,96904.84
2023-05-01T01:39:31.933Z,96911.19
2023-05-01T01:42:00.381Z,96897.72
2023-05-01T01:44:41.972Z,96897.59
2023-05-01T01:47:12.290Z,96886.97
2023-05-01T01:49:44.659Z,96897.38
2023-05-01T01:52:14.279Z,96895.66
2023-05-01T01:54:50.594Z,96896.81
2023-05-01T01:57:19.471Z,96890.50
2023-05-01T01:59:47.508Z,96889.25
2023-05-01T02:02:17.354Z,96869.69
2023-05-01T02:04:45.442Z,96889.09
2023-05-01T02:07:14.377Z,96889.69
2023-05-01T02:09:42.150Z,96878.31
2023-05-01T02:12:09.881Z,96880.75
2023-05-01T02:14:38.708Z,96881.28
2023-05-01T02:17:06.324Z,96872.09
2023-05-01T02:19:34.486Z,96868.38
2023-05-01T02:22:03.007Z,96873.59
2023-05-01T02:24:32.069Z,96879.97
2023-05-01T02:27:08.446Z,96864.91
2023-05-01T02:29:35.961Z,96860.59
2023-05-01T02:32:02.989Z,96872.69
2023-05-01T02:34:29.533Z,96867.16
2023-05-01T02:36:56.188Z,96853.69
2023-05-01T02:39:22.862Z,96858.28
2023-05-01T02:41:51.287Z,96861.25
2023-05-01T02:44:19.042Z,96860.41
2023-05-01T02:46:48.477Z,96861.19
2023-05-01T02:49:17.917Z,96851.38
2023-05-01T02:51:46.932Z,96841.19
2023-05-01T02:54:13.979Z,96842.47
2023-05-01T02:56:40.479Z,96836.84
2023-05-01T02:59:07.096Z,96840.56
2023-05-01T03:01:34.036Z,96828.00
2023-05-01T03:04:01.150Z,96835.84
2023-05-01T03:06:29.303Z,96832.69
2023-05-01T03:08:55.831Z,96831.72
2023-05-01T03:11:24.468Z,96834.94
2023-05-01T03:13:51.316Z,96825.94
2023-05-01T03:16:17.868Z,96828.28
2023-05-01T03:18:44.432Z,96829.06
2023-05-01T03:21:12.741Z,96820.84
2023-05-01T03:23:39.310Z,96812.38
2023-05-01T03:26:06.731Z,96816.31
2023-05-01T03:28:33.382Z,96825.31
2023-05-01T03:30:59.961Z,96814.34
2023-05-01T03:33:26.744Z,96813.34
2023-05-01T03:36:05.699Z,96797.28
2023-05-01T03:38:32.284Z,96817.47
2023-05-01T03:40:59.953Z,96818.88
2023-05-01T03:43:26.589Z,96801.53
2023-05-01T03:45:53.244Z,96802.75
2023-05-01T03:48:20.304Z,96795.72
2023-05-01T03:50:47.707Z,96790.81
2023-05-01T03:53:14.694Z,96789.88
2023-05-01T03:55:41.223Z,96792.09
2023-05-01T03:58:07.887Z,96790.38
2023-05-01T04:00:34.534Z,96794.56
2023-05-01T04:03:01.260Z,96789.63
2023-05-01T04:05:27.872Z,96782.91
2023-05-01T04:07:54.391Z,96787.16
2023-05-01T04:10:20.898Z,96792.25
2023-05-01T04:12:47.345Z,96786.75
2023-05-01T04:15:15.494Z,96793.06
2023-05-01T04:17:43.858Z,96803.34
2023-05-01T04:20:11.092Z,96788.66
2023-05-01T04:22:37.990Z,96802.91
2023-05-01T04:25:04.840Z,96786.56
2023-05-01T04:27:31.775Z,96787.88
2023-05-01T04:29:58.817Z,96798.13
2023-05-01T04:32:29.546Z,96793.81
2023-05-01T04:34:56.283Z,96796.63
2023-05-01T04:37:22.746Z,96780.75
2023-05-01T04:39:49.303Z,96785.72
2023-05-01T04:42:15.845Z,96790.31
2023-05-01T04:44:42.892Z,96785.25
2023-05-01T04:47:09.523Z,96783.09
2023-05-01T04:49:36.075Z,96777.41
2023-05-01T04:52:02.620Z,96776.78
2023-05-01T04:54:29.187Z,96775.34
2023-05-01T04:56:55.826Z,96776.31
2023-05-01T04:59:22.332Z,96788.44
2023-05-01T05:01:48.845Z,96780.94
2023-05-01T05:04:15.379Z,96787.03
2023-05-01T05:06:41.880Z,96795.41
2023-05-01T05:09:08.592Z,96791.31
2023-05-01T05:11:35.228Z,96791.63
2023-05-01T05:14:01.718Z,96782.13
2023-05-01T05:16:28.319Z,96773.44
2023-05-01T05:18:58.007Z,96787.84
2023-05-01T05:21:24.528Z,96783.69
2023-05-01T05:23:51.183Z,96777.72
2023-05-01T05:26:18.618Z,96782.41
2023-05-01T05:28:45.660Z,96777.94
2023-05-01T05:31:12.616Z,96776.38
2023-05-01T05:33:39.367Z,96758.84
2023-05-01T05:36:06.762Z,96760.69
2023-05-01T05:38:33.331Z,96754.69
2023-05-01T05:41:00.989Z,96758.69
2023-05-01T05:43:28.269Z,96768.59
2023-05-01T05:46:01.072Z,96763.34
2023-05-01T05:48:27.947Z,96765.88
2023-05-01T05:50:54.614Z,96776.88
2023-05-01T05:53:22.457Z,96776.38
2023-05-01T05:55:50.862Z,96775.38
2023-05-01T05:58:20.068Z,96784.94
2023-05-01T06:00:48.439Z,96779.16
2023-05-01T06:03:16.200Z,96776.81
2023-05-01T06:05:43.837Z,96779.09
2023-05-01T06:08:10.531Z,96780.09
2023-05-01T06:10:39.799Z,96775.13
2023-05-01T06:13:13.977Z,96763.34
2023-05-01T06:15:41.531Z,96755.47
2023-05-01T06:18:08.316Z,96747.16
2023-05-01T06:20:35.535Z,96750.41
2023-05-01T06:23:02.016Z,96744.91
2023-05-01T06:25:28.615Z,96735.28
2023-05-01T06:27:55.087Z,96742.00
2023-05-01T06:30:21.984Z,96744.72
2023-05-01T06:32:48.976Z,96737.06
2023-05-01T06:35:15.660Z,96733.13
2023-05-01T06:37:42.326Z,96732.94
2023-05-01T06:40:09.876Z,96739.56
2023-05-01T06:42:39.699Z,96732.84
2023-05-01T06:45:07.620Z,96727.97
2023-05-01T06:47:34.425Z,96732.88
2023-05-01T06:50:03.648Z,96724.00
2023-05-01T06:52:31.674Z,96729.69
2023-05-01T06:54:58.125Z,96726.31
2023-05-01T06:57:24.628Z,96716.13
2023-05-01T06:59:51.081Z,96722.19
2023-05-01T07:02:18.516Z,96712.81
2023-05-01T07:04:45.291Z,96710.00
2023-05-01T07:07:12.185Z,96715.94
2023-05-01T07:09:38.890Z,96702.91
2023-05-01T07:12:06.379Z,96705.13
2023-05-01T07:14:35.842Z,96701.47
2023-05-01T07:17:03.237Z,96698.75
2023-05-01T07:19:29.802Z,96693.22
2023-05-01T07:21:56.411Z,96695.91
2023-05-01T07:24:22.993Z,96692.97
2023-05-01T07:26:49.770Z,96692.94
2023-05-01T07:29:16.631Z,96686.00
2023-05-01T07:31:45.863Z,96682.78
2023-05-01T07:34:12.954Z,96688.53
2023-05-01T07:36:39.641Z,96685.84
2023-05-01T07:39:08.225Z,96682.44
2023-05-01T07:41:34.757Z,96674.44
2023-05-01T07:44:01.650Z,96672.00
2023-05-01T07:46:28.286Z,96673.50
2023-05-01T07:48:54.946Z,96680.97
2023-05-01T07:51:22.023Z,96672.31
2023-05-01T07:53:49.336Z,96669.63
2023-05-01T07:56:16.853Z,96674.00
2023-05-01T07:58:44.034Z,96669.59
2023-05-01T08:01:10.784Z,96667.09
2023-05-01T08:03:37.951Z,96666.97
2023-05-01T08:06:05.334Z,96675.28
2023-05-01T08:08:31.904Z,96673.56
2023-05-01T08:10:58.431Z,96674.53
2023-05-01T08:13:25.037Z,96662.59
2023-05-01T08:15:52.542Z,96667.78
2023-05-01T08:18:21.683Z,96654.50
2023-05-01T08:20:48.743Z,96658.09
2023-05-01T08:23:17.034Z,96661.56
2023-05-01T08:25:46.758Z,96650.94
2023-05-01T08:28:14.804Z,96641.75
2023-05-01T08:30:41.333Z,96646.66
2023-05-01T08:33:07.923Z,96645.28
2023-05-01T08:35:34.471Z,96651.63
2023-05-01T08:38:02.338Z,96640.34
2023-05-01T08:40:33.304Z,96650.88
2023-05-01T08:43:02.296Z,96645.69
2023-05-01T08:45:31.141Z,96643.50
2023-05-01T08:47:58.949Z,96647.34
2023-05-01T08:50:27.532Z,96649.22
2023-05-01T08:52:56.126Z,96648.75
2023-05-01T08:55:23.483Z,96642.25
2023-05-01T08:57:51.530Z,96646.59
2023-05-01T09:00:20.174Z,96640.03
2023-05-01T09:02:49.425Z,96632.66
2023-05-01T09:05:17.341Z,96646.22
2023-05-01T09:07:48.562Z,96642.03
2023-05-01T09:10:19.142Z,96629.31
2023-05-01T09:12:49.668Z,96635.88
2023-05-01T09:15:16.645Z,96628.59
2023-05-01T09:17:44.978Z,96629.13
2023-05-01T09:20:11.991Z,96620.78
2023-05-01T09:22:38.868Z,96629.84
2023-05-01T09:25:05.952Z,96612.78
2023-05-01T09:27:35.824Z,96619.31
2023-05-01T09:30:06.040Z,96618.63
2023-05-01T09:32:32.717Z,96622.69
2023-05-01T09:35:14.018Z,96618.75
2023-05-01T09:37:41.267Z,96612.53
2023-05-01T09:40:12.802Z,96628.13
2023-05-01T09:42:41.082Z,96620.63
2023-05-01T09:45:17.478Z,96610.09
2023-05-01T09:47:45.719Z,96600.00
2023-05-01T09:50:33.644Z,96610.38
2023-05-01T09:53:05.247Z,96611.03
2023-05-01T09:55:31.914Z,96602.13
2023-05-01T09:58:01.518Z,96621.97
2023-05-01T10:00:28.010Z,96614.13
2023-05-01T10:02:55.012Z,96621.41
2023-05-01T10:05:22.998Z,96609.13
2023-05-01T10:07:59.539Z,96614.91
2023-05-01T10:10:26.311Z,96600.69
2023-05-01T10:12:53.012Z,96616.00
2023-05-01T10:15:25.966Z,96613.94
2023-05-01T10:17:53.993Z,96607.38
2023-05-01T10:20:21.164Z,96610.66
2023-05-01T10:22:48.885Z,96602.91
2023-05-01T10:25:17.435Z,96600.97
2023-05-01T10:27:44.049Z,96613.81
2023-05-01T10:30:11.408Z,96601.22
2023-05-01T10:32:41.862Z,96598.44
2023-05-01T10:35:19.524Z,96600.06
2023-05-01T10:37:58.597Z,96602.69
2023-05-01T10:40:40.634Z,96598.47
2023-05-01T10:43:19.590Z,96596.84
2023-05-01T10:45:48.537Z,96604.53
2023-05-01T10:48:37.845Z,96590.34
2023-05-01T10:51:15.510Z,96588.47
2023-05-01T10:53:43.436Z,96583.41
2023-05-01T10:56:24.139Z,96579.81
2023-05-01T10:58:53.725Z,96584.19
2023-05-01T11:01:29.198Z,96586.75
2023-05-01T11:03:56.881Z,96581.44
2023-05-01T11:06:24.287Z,96576.09
2023-05-01T11:08:51.059Z,96580.75
2023-05-01T11:11:21.354Z,96574.25
2023-05-01T11:14:05.014Z,96571.22
2023-05-01T11:16:41.880Z,96574.47
2023-05-01T11:19:31.584Z,96571.19
2023-05-01T11:21:58.308Z,96563.50
2023-05-01T11:24:33.958Z,96572.38
2023-05-01T11:27:01.308Z,96571.00
2023-05-01T11:29:33.111Z,96566.06
2023-05-01T11:32:00.808Z,96557.97
2023-05-01T11:34:28.103Z,96553.59
2023-05-01T11:36:54.616Z,96553.66
2023-05-01T11:39:22.193Z,96549.75
2023-05-01T11:41:48.856Z,96555.53
2023-05-01T11:44:17.546Z,96549.03
2023-05-01T11:46:44.449Z,96556.88
2023-05-01T11:49:11.518Z,96549.28
2023-05-01T11:51:38.044Z,96559.09
2023-05-01T11:54:16.222Z,96552.06
2023-05-01T11:56:42.906Z,96542.09
2023-05-01T11:59:18.933Z,96539.88
2023-05-01T12:01:46.699Z,96540.47
2023-05-01T12:04:23.023Z,96538.97
2023-05-01T12:06:50.378Z,96535.59
2023-05-01T12:09:18.002Z,96550.84
2023-05-01T12:11:46.165Z,96547.28
2023-05-01T12:14:18.116Z,96540.13
2023-05-01T12:16:45.210Z,96543.50
2023-05-01T12:19:14.927Z,96540.78
2023-05-01T12:21:41.920Z,96530.97
2023-05-01T12:24:10.728Z,96545.00
2023-05-01T12:40:33.419Z,96522.81
2023-05-01T12:43:00.605Z,96534.53
2023-05-01T12:45:29.291Z,96531.22
2023-05-01T12:47:55.957Z,96542.75
2023-05-01T12:50:22.697Z,96533.31
2023-05-01T12:52:49.357Z,96526.47
2023-05-01T12:55:16.376Z,96524.50
2023-05-01T12:57:54.361Z,96522.78
2023-05-01T13:00:21.254Z,96521.03
2023-05-01T13:02:48.858Z,96521.59
2023-05-01T13:05:15.502Z,96521.53
2023-05-01T13:07:48.347Z,96518.28
2023-05-01T13:10:19.864Z,96526.97
2023-05-01T13:12:47.527Z,96533.44
2023-05-01T13:15:21.726Z,96523.84
2023-05-01T13:17:48.522Z,96528.13
2023-05-01T13:20:26.938Z,96523.47
2023-05-01T13:22:53.706Z,96526.78
2023-05-01T13:25:26.720Z,96513.91
2023-05-01T13:27:54.157Z,96518.03
2023-05-01T13:30:30.972Z,96519.31
2023-05-01T13:32:57.523Z,96511.63
2023-05-01T13:35:35.797Z,96519.25
2023-05-01T13:38:03.492Z,96513.56
2023-05-01T13:40:34.234Z,96520.41
2023-05-01T13:43:00.966Z,96522.19
2023-05-01T13:45:27.741Z,96520.91
2023-05-01T13:47:56.618Z,96525.28
2023-05-01T13:50:23.174Z,96521.63
2023-05-01T13:52:49.697Z,96531.81
2023-05-01T13:55:17.595Z,96536.81
2023-05-01T13:57:46.251Z,96537.09
2023-05-01T14:00:18.695Z,96542.63
2023-05-01T14:02:48.702Z,96517.88
2023-05-01T14:05:16.299Z,96530.59
2023-05-01T14:07:55.145Z,96529.28
2023-05-01T14:10:23.084Z,96527.06
2023-05-01T14:12:58.847Z,96517.03
2023-05-01T14:15:25.903Z,96533.69
2023-05-01T14:17:55.613Z,96533.88
2023-05-01T14:20:25.436Z,96533.09
2023-05-01T14:22:53.379Z,96540.06
2023-05-01T14:25:31.283Z,96541.03
2023-05-01T14:27:59.535Z,96540.13
2023-05-01T14:30:33.821Z,96556.94
2023-05-01T14:33:09.517Z,96547.88
2023-05-01T14:35:43.811Z,96549.41
2023-05-01T14:38:13.405Z,96552.72
2023-05-01T14:40:41.897Z,96557.09
2023-05-01T14:43:13.527Z,96553.56
2023-05-01T14:45:49.794Z,96553.56
2023-05-01T14:48:30.127Z,96547.97
2023-05-01T14:50:58.042Z,96551.19
2023-05-01T14:53:27.360Z,96558.34
2023-05-01T14:55:55.240Z,96559.81
2023-05-01T14:58:22.478Z,96545.97
2023-05-01T15:00:49.012Z,96558.44
2023-05-01T15:03:15.638Z,96562.38
2023-05-01T15:05:42.221Z,96555.16
2023-05-01T15:08:09.344Z,96562.28
2023-05-01T15:10:36.027Z,96562.47
2023-05-01T15:13:09.340Z,96561.44
2023-05-01T15:15:36.491Z,96572.41
2023-05-01T15:18:04.127Z,96563.91
2023-05-01T15:20:31.354Z,96573.69
2023-05-01T15:22:58.822Z,96566.56
2023-05-01T15:25:25.312Z,96573.50
2023-05-01T15:27:51.954Z,96578.19
2023-05-01T15:30:18.477Z,96568.06
2023-05-01T15:32:45.232Z,96563.41
2023-05-01T15:35:16.628Z,96575.00
2023-05-01T15:37:46.187Z,96581.09
2023-05-01T15:40:13.041Z,96576.59
2023-05-01T15:42:48.131Z,96574.59
2023-05-01T15:45:15.733Z,96575.19
2023-05-01T15:47:42.995Z,96579.06
2023-05-01T15:50:13.625Z,96571.91
2023-05-01T15:52:40.370Z,96583.53
2023-05-01T15:55:07.404Z,96586.75
2023-05-01T15:57:35.936Z,96585.97
2023-05-01T16:00:09.393Z,96577.03
2023-05-01T16:02:35.992Z,96579.47
2023-05-01T16:05:05.569Z,96575.00
2023-05-01T16:07:33.915Z,96566.44
2023-05-01T16:10:00.794Z,96580.47
2023-05-01T16:12:28.806Z,96582.69
2023-05-01T16:14:55.521Z,96578.63
2023-05-01T16:17:22.499Z,96582.28
2023-05-01T16:19:49.573Z,96585.53
2023-05-01T16:22:16.870Z,96590.03
2023-05-01T16:24:43.618Z,96579.06
2023-05-01T16:27:13.142Z,96589.19
2023-05-01T16:29:39.812Z,96589.44
2023-05-01T16:32:11.354Z,96592.88
2023-05-01T16:34:40.115Z,96592.66
2023-05-01T16:37:06.682Z,96595.13
2023-05-01T16:40:15.097Z,96597.16
2023-05-01T16:42:42.419Z,96599.38
2023-05-01T16:45:09.517Z,96592.06
2023-05-01T16:47:36.609Z,96592.88
2023-05-01T16:50:07.431Z,96598.78
2023-05-01T16:52:33.889Z,96602.22
2023-05-01T16:55:28.087Z,96602.56
2023-05-01T16:57:54.555Z,96602.56
2023-05-01T17:00:24.356Z,96589.13
2023-05-01T17:02:52.393Z,96604.38
2023-05-01T17:05:21.996Z,96597.22
2023-05-01T17:07:48.608Z,96615.09
2023-05-01T17:10:16.222Z,96618.38
2023-05-01T17:12:42.770Z,96603.72
2023-05-01T17:15:09.892Z,96609.22
2023-05-01T17:17:39.194Z,96603.00
2023-05-01T17:20:07.500Z,96602.66
2023-05-01T17:22:34.988Z,96611.34
2023-05-01T17:25:03.007Z,96606.38
2023-05-01T17:27:37.846Z,96612.63
2023-05-01T17:30:06.037Z,96614.31
2023-05-01T17:32:37.034Z,96607.25
2023-05-01T17:35:04.995Z,96613.59
2023-05-01T17:37:31.673Z,96614.22
2023-05-01T17:39:58.359Z,96613.22
2023-05-01T17:42:24.933Z,96616.50
2023-05-01T17:44:51.358Z,96621.25
2023-05-01T17:47:17.922Z,96624.13
2023-05-01T17:49:44.407Z,96629.56
2023-05-01T17:52:11.178Z,96624.28
2023-05-01T17:54:38.521Z,96627.84
2023-05-01T17:57:05.370Z,96626.94
2023-05-01T17:59:31.900Z,96635.81
2023-05-01T18:01:58.514Z,96632.63
2023-05-01T18:04:25.159Z,96634.19
2023-05-01T18:06:51.723Z,96624.44
2023-05-01T18:09:25.437Z,96641.09
2023-05-01T18:11:51.882Z,96628.47
2023-05-01T18:14:18.828Z,96640.13
2023-05-01T18:16:45.423Z,96639.25
2023-05-01T18:19:11.930Z,96648.69
2023-05-01T18:21:38.911Z,96648.84
2023-05-01T18:24:06.793Z,96651.50
2023-05-01T18:26:33.541Z,96656.41
2023-05-01T18:29:00.735Z,96661.13
2023-05-01T18:31:27.428Z,96652.75
2023-05-01T18:34:01.603Z,96649.94
2023-05-01T18:36:28.455Z,96647.66
2023-05-01T18:38:55.761Z,96653.38
2023-05-01T18:41:25.769Z,96657.84
2023-05-01T18:43:55.552Z,96665.09
2023-05-01T18:46:30.855Z,96666.72
2023-05-01T18:48:57.329Z,96658.09
2023-05-01T18:51:23.883Z,96671.00
2023-05-01T18:53:50.368Z,96670.81
2023-05-01T18:56:17.407Z,96669.94
2023-05-01T18:58:43.940Z,96679.22
2023-05-01T19:01:10.449Z,96692.63
2023-05-01T19:03:37.025Z,96679.88
2023-05-01T19:06:03.743Z,96690.75
2023-05-01T19:08:31.698Z,96685.88
2023-05-01T19:10:58.535Z,96688.19
2023-05-01T19:13:25.053Z,96696.50
2023-05-01T19:15:51.581Z,96694.25
2023-05-01T19:18:18.172Z,96694.66
2023-05-01T19:20:45.872Z,96702.56
2023-05-01T19:23:12.521Z,96696.22
2023-05-01T19:25:38.974Z,96695.38
2023-05-01T19:28:05.448Z,96704.63
2023-05-01T19:30:31.933Z,96701.78
2023-05-01T19:33:06.643Z,96705.84
2023-05-01T19:35:33.145Z,96697.38
2023-05-01T19:38:03.804Z,96698.97
2023-05-01T19:40:30.319Z,96716.97
2023-05-01T19:42:56.841Z,96703.63
2023-05-01T19:45:23.308Z,96717.75
2023-05-01T19:47:49.812Z,96715.78
2023-05-01T19:50:19.122Z,96710.78
2023-05-01T19:52:45.620Z,96701.44
2023-05-01T19:55:18.107Z,96713.69
2023-05-01T19:57:44.716Z,96715.53
2023-05-01T20:00:14.554Z,96718.16
2023-05-01T20:02:43.383Z,96723.59
2023-05-01T20:05:10.874Z,96721.69
2023-05-01T20:07:37.348Z,96722.88
2023-05-01T20:10:04.998Z,96723.59
2023-05-01T20:12:32.490Z,96732.31
2023-05-01T20:15:03.130Z,96736.84
2023-05-01T20:17:31.650Z,96735.75
2023-05-01T20:20:00.400Z,96738.38
2023-05-01T20:22:27.165Z,96741.88
2023-05-01T20:24:53.673Z,96747.31
2023-05-01T20:27:20.222Z,96747.22
2023-05-01T20:29:46.800Z,96755.06
2023-05-01T20:32:13.484Z,96755.41
2023-05-01T20:34:39.942Z,96758.38
2023-05-01T20:37:06.974Z,96759.09
2023-05-01T20:39:33.423Z,96750.88
2023-05-01T20:42:00.860Z,96767.81
2023-05-01T20:44:27.745Z,96763.84
2023-05-01T20:46:54.238Z,96759.75
2023-05-01T20:49:36.921Z,96760.31
2023-05-01T20:52:03.374Z,96751.03
2023-05-01T20:54:32.692Z,96765.41
2023-05-01T20:57:00.035Z,96768.06
2023-05-01T20:59:26.669Z,96763.63
2023-05-01T21:01:53.249Z,96772.72
2023-05-01T21:04:22.221Z,96776.38
2023-05-01T21:06:48.861Z,96774.47
2023-05-01T21:09:16.591Z,96766.94
2023-05-01T21:11:43.034Z,96780.38
2023-05-01T21:14:09.574Z,96779.78
2023-05-01T21:16:45.195Z,96783.25
2023-05-01T21:19:12.972Z,96786.38
2023-05-01T21:21:39.494Z,96783.47
2023-05-01T21:24:07.802Z,96785.75
2023-05-01T21:26:34.684Z,96789.44
2023-05-01T21:29:01.200Z,96782.84
2023-05-01T21:31:31.238Z,96784.34
2023-05-01T21:34:02.535Z,96796.78
2023-05-01T21:36:29.386Z,96795.06
2023-05-01T21:38:56.486Z,96804.13
2023-05-01T21:41:22.993Z,96800.78
2023-05-01T21:43:49.531Z,96784.09
2023-05-01T21:46:18.508Z,96795.69
2023-05-01T21:48:53.356Z,96804.50
2023-05-01T21:51:26.977Z,96805.09
2023-05-01T21:53:53.429Z,96802.50
2023-05-01T21:56:23.497Z,96816.53
2023-05-01T21:58:51.208Z,96793.84
2023-05-01T22:01:20.982Z,96807.63
2023-05-01T22:03:48.376Z,96820.13
2023-05-01T22:06:15.006Z,96808.56
2023-05-01T22:08:42.782Z,96803.94
2023-05-01T22:11:09.687Z,96821.13
2023-05-01T22:13:36.204Z,96813.75
2023-05-01T22:16:02.905Z,96800.72
2023-05-01T22:18:35.680Z,96815.47
2023-05-01T22:21:03.462Z,96811.69
2023-05-01T22:23:29.968Z,96810.28
2023-05-01T22:26:01.165Z,96817.63
2023-05-01T22:28:27.735Z,96819.94
2023-05-01T22:30:54.528Z,96818.16
2023-05-01T22:33:21.158Z,96830.91
2023-05-01T22:35:48.788Z,96827.84
2023-05-01T22:38:15.243Z,96830.78
2023-05-01T22:40:42.482Z,96837.84
2023-05-01T22:43:11.007Z,96834.69
2023-05-01T22:45:38.694Z,96835.38
2023-05-01T22:48:07.349Z,96829.13
2023-05-01T22:50:34.725Z,96845.22
2023-05-01T22:53:01.493Z,96829.63
2023-05-01T22:55:28.362Z,96838.97
2023-05-01T22:57:54.860Z,96837.84
2023-05-01T23:00:22.225Z,96845.19
2023-05-01T23:02:48.804Z,96840.63
2023-05-01T23:05:15.617Z,96844.22
2023-05-01T23:07:48.478Z,96843.53
2023-05-01T23:10:15.454Z,96838.66
2023-05-01T23:12:44.434Z,96838.94
2023-05-01T23:15:13.713Z,96841.25
2023-05-01T23:17:40.377Z,96842.22
2023-05-01T23:20:09.392Z,96840.25
2023-05-01T23:22:40.433Z,96831.41
2023-05-01T23:25:07.600Z,96833.34
2023-05-01T23:27:37.809Z,96827.25
2023-05-01T23:30:06.132Z,96833.56
2023-05-01T23:32:33.594Z,96835.91
2023-05-01T23:35:04.883Z,96833.44
2023-05-01T23:37:39.611Z,96843.91
2023-05-01T23:40:07.242Z,96843.72
2023-05-01T23:42:35.413Z,96838.16
2023-05-01T23:45:02.105Z,96833.16
2023-05-01T23:47:29.664Z,96842.06
2023-05-01T23:49:56.624Z,96830.25
2023-05-01T23:52:23.312Z,96830.63
2023-05-01T23:54:49.893Z,96835.50
2023-05-01T23:57:16.491Z,96826.31
2023-05-01T23:59:48.798Z,96833.09
